^^
Grace C. Lehan Memorial Weather Station Historical Data
Daily Summary for July 15, 2022 Units:  Both    English   Metric
Daily Weekly Monthly Yearly
  High: Low: Average:
Temperature: 71.8 °F /  22.1 °C 57.7 °F /  14.3 °C 64.9 °F /  18.3 °C
Dew Point: 60.7 °F /  15.9 °C 46.7 °F /  8.2 °C 51.2 °F /  10.7 °C
Humidity: 87% 41% 63%
Wind Speed: 5.8mph /  9.3km/h - 1.5mph /  2.4km/h
Wind Gust: 18mph /  29km/h - -
Wind- - WNW
Pressure: 30.15 in /  1020.9 hPa 29.94 in /  1013.8 hPa -
Precipitation: 0.00 in /  0 mm    
 
 
Tabular Data for July 15, 2022
Time Temperature Dew Point Pressure Wind Wind Speed Wind Gust Humidity Rainfall Rate (Hourly) solar
00:04 64.9 °F /  18.3 °C 60.3 °F /  15.7 °C 29.94in /  1013.8hPa Calm     85% 0.00in /  0mm 0 W/m2
00:09 65 °F /  18.3 °C 60.4 °F /  15.8 °C 29.95in /  1014.1hPa WNW 0.5mph /  0.8km/h 5mph /  8km/h 85% 0.00in /  0mm 0 W/m2
00:14 65 °F /  18.3 °C 60.4 °F /  15.8 °C 29.95in /  1014.1hPa West 1.6mph /  2.6km/h 9mph /  14.5km/h 85% 0.00in /  0mm 0 W/m2
00:19 65.2 °F /  18.4 °C 60.5 °F /  15.8 °C 29.95in /  1014.1hPa West 1.8mph /  2.9km/h 9mph /  14.5km/h 85% 0.00in /  0mm 0 W/m2
00:24 65.2 °F /  18.4 °C 60.6 °F /  15.9 °C 29.95in /  1014.1hPa WSW 0.8mph /  1.3km/h 9mph /  14.5km/h 85% 0.00in /  0mm 0 W/m2
00:29 65.3 °F /  18.5 °C 60.7 °F /  15.9 °C 29.95in /  1014.1hPa WSW 0.5mph /  0.8km/h 9mph /  14.5km/h 85% 0.00in /  0mm 0 W/m2
00:34 65.3 °F /  18.5 °C 60.7 °F /  15.9 °C 29.95in /  1014.1hPa WSW 0.1mph /  0.2km/h 9mph /  14.5km/h 85% 0.00in /  0mm 0 W/m2
00:39 65.3 °F /  18.5 °C 60.6 °F /  15.9 °C 29.95in /  1014.1hPa Calm   3mph /  4.8km/h 84.8% 0.00in /  0mm 0 W/m2
00:44 65.3 °F /  18.5 °C 60.4 °F /  15.8 °C 29.95in /  1014.1hPa Calm   3mph /  4.8km/h 84.1% 0.00in /  0mm 0 W/m2
00:49 65.2 °F /  18.4 °C 60.3 °F /  15.7 °C 29.95in /  1014.1hPa Calm   3mph /  4.8km/h 84% 0.00in /  0mm 0 W/m2
00:54 65.2 °F /  18.4 °C 60.2 °F /  15.7 °C 29.95in /  1014.1hPa Calm   3mph /  4.8km/h 84% 0.00in /  0mm 0 W/m2
00:59 65.1 °F /  18.4 °C 60.1 °F /  15.6 °C 29.95in /  1014.1hPa Calm   3mph /  4.8km/h 84% 0.00in /  0mm 0 W/m2
01:04 65 °F /  18.3 °C 60 °F /  15.6 °C 29.95in /  1014.1hPa Calm   3mph /  4.8km/h 84% 0.00in /  0mm 0 W/m2
01:09 64.9 °F /  18.3 °C 59.9 °F /  15.5 °C 29.95in /  1014.1hPa Calm     84% 0.00in /  0mm 0 W/m2
01:14 64.8 °F /  18.2 °C 59.8 °F /  15.4 °C 29.95in /  1014.1hPa Calm     84% 0.00in /  0mm 0 W/m2
01:19 64.7 °F /  18.2 °C 59.9 °F /  15.5 °C 29.95in /  1014.1hPa Calm     84.5% 0.00in /  0mm 0 W/m2
01:24 64.5 °F /  18.1 °C 59.9 °F /  15.5 °C 29.95in /  1014.1hPa Calm     85% 0.00in /  0mm 0 W/m2
01:29 64.4 °F /  18 °C 59.8 °F /  15.4 °C 29.95in /  1014.1hPa Calm     85% 0.00in /  0mm 0 W/m2
01:34 64.2 °F /  17.9 °C 59.6 °F /  15.3 °C 29.96in /  1014.4hPa Calm     85% 0.00in /  0mm 0 W/m2
01:39 64.1 °F /  17.8 °C 59.5 °F /  15.3 °C 29.96in /  1014.4hPa Calm     85% 0.00in /  0mm 0 W/m2
01:44 63.9 °F /  17.7 °C 59.3 °F /  15.2 °C 29.96in /  1014.4hPa Calm     85% 0.00in /  0mm 0 W/m2
01:48 63.8 °F /  17.7 °C 59.4 °F /  15.2 °C 29.96in /  1014.4hPa WSW 0.5mph /  0.8km/h 4mph /  6.4km/h 85.6% 0.00in /  0mm 0 W/m2
01:54 63.6 °F /  17.6 °C 59.4 °F /  15.2 °C 29.96in /  1014.4hPa Calm   4mph /  6.4km/h 86% 0.00in /  0mm 0 W/m2
01:59 63.5 °F /  17.5 °C 59.6 °F /  15.3 °C 29.96in /  1014.4hPa Calm   4mph /  6.4km/h 87% 0.00in /  0mm 0 W/m2
02:04 63.4 °F /  17.4 °C 59.5 °F /  15.3 °C 29.96in /  1014.4hPa Calm   4mph /  6.4km/h 87% 0.00in /  0mm 0 W/m2
02:09 63.3 °F /  17.4 °C 59.4 °F /  15.2 °C 29.96in /  1014.4hPa Calm     87% 0.00in /  0mm 0 W/m2
02:14 63.2 °F /  17.3 °C 59.3 °F /  15.2 °C 29.97in /  1014.8hPa Calm   2mph /  3.2km/h 87% 0.00in /  0mm 0 W/m2
02:19 63.1 °F /  17.3 °C 59.2 °F /  15.1 °C 29.97in /  1014.8hPa Calm   2mph /  3.2km/h 87% 0.00in /  0mm 0 W/m2
02:24 63.1 °F /  17.3 °C 59.2 °F /  15.1 °C 29.97in /  1014.8hPa WSW 0.5mph /  0.8km/h 4mph /  6.4km/h 87% 0.00in /  0mm 0 W/m2
02:29 63 °F /  17.2 °C 59.1 °F /  15.1 °C 29.97in /  1014.8hPa WSW 0.3mph /  0.5km/h 4mph /  6.4km/h 87% 0.00in /  0mm 0 W/m2
02:34 63 °F /  17.2 °C 59.1 °F /  15.1 °C 29.97in /  1014.8hPa West 1mph /  1.6km/h 6mph /  9.7km/h 87% 0.00in /  0mm 0 W/m2
02:39 63 °F /  17.2 °C 58.8 °F /  14.9 °C 29.97in /  1014.8hPa West 0.3mph /  0.5km/h 6mph /  9.7km/h 86.3% 0.00in /  0mm 0 W/m2
02:44 63.2 °F /  17.3 °C 59 °F /  15 °C 29.97in /  1014.8hPa West 1.5mph /  2.4km/h 10mph /  16.1km/h 86% 0.00in /  0mm 0 W/m2
02:49 63.5 °F /  17.5 °C 59 °F /  15 °C 29.97in /  1014.8hPa WNW 1.8mph /  2.9km/h 10mph /  16.1km/h 85.2% 0.00in /  0mm 0 W/m2
02:54 63.9 °F /  17.7 °C 59 °F /  15 °C 29.97in /  1014.8hPa WNW 1.1mph /  1.8km/h 10mph /  16.1km/h 84.3% 0.00in /  0mm 0 W/m2
02:59 64.2 °F /  17.9 °C 58.9 °F /  14.9 °C 29.98in /  1015.1hPa WNW 0.8mph /  1.3km/h 10mph /  16.1km/h 83.1% 0.00in /  0mm 0 W/m2
03:04 64.4 °F /  18 °C 59.1 °F /  15.1 °C 29.98in /  1015.1hPa WNW 0.8mph /  1.3km/h 10mph /  16.1km/h 82.8% 0.00in /  0mm 0 W/m2
03:09 64.6 °F /  18.1 °C 58.9 °F /  14.9 °C 29.98in /  1015.1hPa NW 1mph /  1.6km/h 6mph /  9.7km/h 82% 0.00in /  0mm 0 W/m2
03:14 64.7 °F /  18.2 °C 59 °F /  15 °C 29.98in /  1015.1hPa West 0.4mph /  0.6km/h 7mph /  11.3km/h 81.9% 0.00in /  0mm 0 W/m2
03:19 64.7 °F /  18.2 °C 58.7 °F /  14.8 °C 29.99in /  1015.5hPa WNW 1.6mph /  2.6km/h 10mph /  16.1km/h 81% 0.00in /  0mm 0 W/m2
03:24 64.7 °F /  18.2 °C 58.7 °F /  14.8 °C 29.99in /  1015.5hPa WNW 1.9mph /  3.1km/h 10mph /  16.1km/h 81% 0.00in /  0mm 0 W/m2
03:29 64.7 °F /  18.2 °C 58.7 °F /  14.8 °C 29.99in /  1015.5hPa WNW 0.3mph /  0.5km/h 10mph /  16.1km/h 81% 0.00in /  0mm 0 W/m2
03:34 64.7 °F /  18.2 °C 58.7 °F /  14.8 °C 29.99in /  1015.5hPa West 1.1mph /  1.8km/h 10mph /  16.1km/h 81% 0.00in /  0mm 0 W/m2
03:39 64.7 °F /  18.2 °C 58.7 °F /  14.8 °C 29.99in /  1015.5hPa WNW 0.2mph /  0.3km/h 10mph /  16.1km/h 81% 0.00in /  0mm 0 W/m2
03:44 64.6 °F /  18.1 °C 58.6 °F /  14.8 °C 29.99in /  1015.5hPa West 1.7mph /  2.7km/h 10mph /  16.1km/h 80.8% 0.00in /  0mm 0 W/m2
03:49 64.5 °F /  18.1 °C 58.2 °F /  14.6 °C 30.00in /  1015.8hPa WNW 1.5mph /  2.4km/h 10mph /  16.1km/h 80% 0.00in /  0mm 0 W/m2
03:54 64.4 °F /  18 °C 58.1 °F /  14.5 °C 30.00in /  1015.8hPa WNW 1mph /  1.6km/h 10mph /  16.1km/h 79.9% 0.00in /  0mm 0 W/m2
03:59 64.3 °F /  17.9 °C 57.6 °F /  14.2 °C 30.00in /  1015.8hPa NW 1.5mph /  2.4km/h 10mph /  16.1km/h 79% 0.00in /  0mm 0 W/m2
04:04 64.1 °F /  17.8 °C 57.5 °F /  14.2 °C 30.00in /  1015.8hPa WNW 0.8mph /  1.3km/h 3mph /  4.8km/h 79% 0.00in /  0mm 0 W/m2
04:09 64 °F /  17.8 °C 57.1 °F /  13.9 °C 30.00in /  1015.8hPa WNW 0.7mph /  1.1km/h 5mph /  8km/h 78.2% 0.00in /  0mm 0 W/m2
04:14 63.9 °F /  17.7 °C 56.9 °F /  13.8 °C 30.00in /  1015.8hPa WNW 1.8mph /  2.9km/h 12mph /  19.3km/h 78% 0.00in /  0mm 0 W/m2
04:19 63.7 °F /  17.6 °C 56.3 °F /  13.5 °C 30.00in /  1015.8hPa WNW 1.3mph /  2.1km/h 12mph /  19.3km/h 76.7% 0.00in /  0mm 0 W/m2
04:24 63.6 °F /  17.6 °C 55.5 °F /  13.1 °C 30.01in /  1016.1hPa NW 1.4mph /  2.3km/h 12mph /  19.3km/h 75% 0.00in /  0mm 0 W/m2
04:29 63.5 °F /  17.5 °C 55.2 °F /  12.9 °C 30.01in /  1016.1hPa NW 1.2mph /  1.9km/h 12mph /  19.3km/h 74.4% 0.00in /  0mm 0 W/m2
04:34 63.4 °F /  17.4 °C 54.2 °F /  12.3 °C 30.01in /  1016.1hPa NW 2.7mph /  4.3km/h 13mph /  20.9km/h 71.9% 0.00in /  0mm 0 W/m2
04:39 63.3 °F /  17.4 °C 53.3 °F /  11.8 °C 30.02in /  1016.5hPa NW 2.2mph /  3.5km/h 13mph /  20.9km/h 70% 0.00in /  0mm 0 W/m2
04:44 63.2 °F /  17.3 °C 52.7 °F /  11.5 °C 30.02in /  1016.5hPa NW 1.6mph /  2.6km/h 13mph /  20.9km/h 68.5% 0.00in /  0mm 0 W/m2
04:49 63.2 °F /  17.3 °C 52.1 °F /  11.2 °C 30.02in /  1016.5hPa NW 3.5mph /  5.6km/h 13mph /  20.9km/h 67% 0.00in /  0mm 0 W/m2
04:54 63.2 °F /  17.3 °C 51.8 °F /  11 °C 30.02in /  1016.5hPa WNW 1.9mph /  3.1km/h 13mph /  20.9km/h 66.4% 0.00in /  0mm 0 W/m2
04:59 63.1 °F /  17.3 °C 51.5 °F /  10.8 °C 30.02in /  1016.5hPa WNW 2.7mph /  4.3km/h 13mph /  20.9km/h 65.9% 0.00in /  0mm 0 W/m2
05:04 63 °F /  17.2 °C 51.1 °F /  10.6 °C 30.02in /  1016.5hPa NW 2.6mph /  4.2km/h 13mph /  20.9km/h 65% 0.00in /  0mm 0 W/m2
05:09 62.9 °F /  17.2 °C 50.7 °F /  10.4 °C 30.02in /  1016.5hPa NW 2.9mph /  4.7km/h 13mph /  20.9km/h 64.3% 0.00in /  0mm 0 W/m2
05:14 62.9 °F /  17.2 °C 50.6 °F /  10.3 °C 30.02in /  1016.5hPa NW 4.6mph /  7.4km/h 13mph /  20.9km/h 64% 0.00in /  0mm 0 W/m2
05:19 62.8 °F /  17.1 °C 50.4 °F /  10.2 °C 30.03in /  1016.8hPa NW 1.6mph /  2.6km/h 13mph /  20.9km/h 63.8% 0.00in /  0mm 0 W/m2
05:24 62.8 °F /  17.1 °C 50.5 °F /  10.3 °C 30.03in /  1016.8hPa NW 2.4mph /  3.9km/h 13mph /  20.9km/h 64.2% 0.00in /  0mm 0 W/m2
05:29 62.6 °F /  17 °C 50.5 °F /  10.3 °C 30.03in /  1016.8hPa NW 2mph /  3.2km/h 13mph /  20.9km/h 64.5% 0.00in /  0mm 0 W/m2
05:34 62.5 °F /  16.9 °C 50.5 °F /  10.3 °C 30.03in /  1016.8hPa WNW 2.4mph /  3.9km/h 13mph /  20.9km/h 65% 0.00in /  0mm 0 W/m2
05:39 62.2 °F /  16.8 °C 50.3 °F /  10.2 °C 30.03in /  1016.8hPa NW 2.6mph /  4.2km/h 9mph /  14.5km/h 65% 0.00in /  0mm 0 W/m2
05:44 62.1 °F /  16.7 °C 50.4 °F /  10.2 °C 30.03in /  1016.8hPa NW 1.7mph /  2.7km/h 9mph /  14.5km/h 65.6% 0.00in /  0mm 0 W/m2
05:49 61.9 °F /  16.6 °C 50.4 °F /  10.2 °C 30.03in /  1016.8hPa WNW 2.9mph /  4.7km/h 10mph /  16.1km/h 66% 0.00in /  0mm 0 W/m2
05:54 61.7 °F /  16.5 °C 50.2 °F /  10.1 °C 30.03in /  1016.8hPa WNW 2.6mph /  4.2km/h 13mph /  20.9km/h 66% 0.00in /  0mm 0 W/m2
05:57 61.6 °F /  16.4 °C 50.1 °F /  10.1 °C 30.03in /  1016.8hPa WNW 4.4mph /  7.1km/h 13mph /  20.9km/h 66% 0.00in /  0mm 0 W/m2
06:04 61.4 °F /  16.3 °C 50.3 °F /  10.2 °C 30.03in /  1016.8hPa WNW 2.2mph /  3.5km/h 13mph /  20.9km/h 67% 0.00in /  0mm 0 W/m2
06:09 61.2 °F /  16.2 °C 50.2 °F /  10.1 °C 30.04in /  1017.2hPa West 1.4mph /  2.3km/h 12mph /  19.3km/h 67% 0.00in /  0mm 0 W/m2
06:14 61 °F /  16.1 °C 50.4 °F /  10.2 °C 30.04in /  1017.2hPa WNW 1.9mph /  3.1km/h 12mph /  19.3km/h 67.9% 0.00in /  0mm 0 W/m2
06:19 60.8 °F /  16 °C 50.2 °F /  10.1 °C 30.05in /  1017.5hPa WNW 1.8mph /  2.9km/h 12mph /  19.3km/h 68% 0.00in /  0mm 0 W/m2
06:24 60.6 °F /  15.9 °C 50.2 °F /  10.1 °C 30.05in /  1017.5hPa WNW 2.8mph /  4.5km/h 12mph /  19.3km/h 68.6% 0.00in /  0mm 0 W/m2
06:29 60.4 °F /  15.8 °C 50.2 °F /  10.1 °C 30.05in /  1017.5hPa WNW 2.2mph /  3.5km/h 12mph /  19.3km/h 69% 0.00in /  0mm 0 W/m2
06:34 60.3 °F /  15.7 °C 50.1 °F /  10.1 °C 30.05in /  1017.5hPa WNW 5.8mph /  9.3km/h 15mph /  24.1km/h 69% 0.00in /  0mm 7 W/m2
06:39 60.3 °F /  15.7 °C 50.1 °F /  10.1 °C 30.05in /  1017.5hPa WNW 5.4mph /  8.7km/h 18mph /  29km/h 69% 0.00in /  0mm 9 W/m2
06:44 60.3 °F /  15.7 °C 50.1 °F /  10.1 °C 30.06in /  1017.8hPa WNW 2.1mph /  3.4km/h 18mph /  29km/h 69% 0.00in /  0mm 12 W/m2
06:49 60.3 °F /  15.7 °C 50.1 °F /  10.1 °C 30.06in /  1017.8hPa WNW 3.9mph /  6.3km/h 18mph /  29km/h 69% 0.00in /  0mm 14 W/m2
06:54 60.2 °F /  15.7 °C 50.4 °F /  10.2 °C 30.07in /  1018.2hPa WNW 2.4mph /  3.9km/h 18mph /  29km/h 69.9% 0.00in /  0mm 16 W/m2
06:59 60.1 °F /  15.6 °C 50.5 °F /  10.3 °C 30.07in /  1018.2hPa WNW 1.2mph /  1.9km/h 18mph /  29km/h 70.6% 0.00in /  0mm 26 W/m2
07:04 60 °F /  15.6 °C 50.5 °F /  10.3 °C 30.07in /  1018.2hPa NW 2mph /  3.2km/h 18mph /  29km/h 70.6% 0.00in /  0mm 32 W/m2
07:09 60 °F /  15.6 °C 50.6 °F /  10.3 °C 30.07in /  1018.2hPa WNW 3.6mph /  5.8km/h 12mph /  19.3km/h 71% 0.00in /  0mm 35 W/m2
07:14 59.9 °F /  15.5 °C 50.6 °F /  10.3 °C 30.07in /  1018.2hPa WNW 0.8mph /  1.3km/h 12mph /  19.3km/h 71.3% 0.00in /  0mm 33 W/m2
07:19 59.9 °F /  15.5 °C 50.8 °F /  10.4 °C 30.08in /  1018.5hPa WNW 3.6mph /  5.8km/h 12mph /  19.3km/h 72% 0.00in /  0mm 26 W/m2
07:24 59.8 °F /  15.4 °C 50.8 °F /  10.4 °C 30.08in /  1018.5hPa NW 1.5mph /  2.4km/h 12mph /  19.3km/h 72% 0.00in /  0mm 26 W/m2
07:29 59.8 °F /  15.4 °C 51.1 °F /  10.6 °C 30.08in /  1018.5hPa WNW 1mph /  1.6km/h 12mph /  19.3km/h 73% 0.00in /  0mm 32 W/m2
07:34 59.7 °F /  15.4 °C 51 °F /  10.6 °C 30.08in /  1018.5hPa NW 1.8mph /  2.9km/h 12mph /  19.3km/h 73% 0.00in /  0mm 28 W/m2
07:39 59.6 °F /  15.3 °C 51.2 °F /  10.7 °C 30.08in /  1018.5hPa WNW 1.6mph /  2.6km/h 11mph /  17.7km/h 73.7% 0.00in /  0mm 35 W/m2
07:44 59.5 °F /  15.3 °C 51.2 °F /  10.7 °C 30.08in /  1018.5hPa NW 1.6mph /  2.6km/h 11mph /  17.7km/h 74% 0.00in /  0mm 33 W/m2
07:49 59.5 °F /  15.3 °C 51.3 °F /  10.7 °C 30.08in /  1018.5hPa NW 2.2mph /  3.5km/h 11mph /  17.7km/h 74.3% 0.00in /  0mm 33 W/m2
07:54 59.6 °F /  15.3 °C 51.5 °F /  10.8 °C 30.08in /  1018.5hPa NW 1.3mph /  2.1km/h 11mph /  17.7km/h 74.6% 0.00in /  0mm 35 W/m2
07:59 59.7 °F /  15.4 °C 51.6 °F /  10.9 °C 30.08in /  1018.5hPa WNW 2.4mph /  3.9km/h 14mph /  22.5km/h 74.5% 0.00in /  0mm 37 W/m2
08:00 59.8 °F /  15.4 °C 51.9 °F /  11.1 °C 30.08in /  1018.5hPa Calm   14mph /  22.5km/h 75% 0.00in /  0mm 37 W/m2
08:09 60 °F /  15.6 °C 51.9 °F /  11.1 °C 30.09in /  1018.8hPa NW 2.3mph /  3.7km/h 9mph /  14.5km/h 74.6% 0.00in /  0mm 47 W/m2
08:14 60.2 °F /  15.7 °C 51.4 °F /  10.8 °C 30.09in /  1018.8hPa NW 1.5mph /  2.4km/h 9mph /  14.5km/h 72.9% 0.00in /  0mm 56 W/m2
08:19 60.3 °F /  15.7 °C 50.6 °F /  10.3 °C 30.09in /  1018.8hPa NW 1.6mph /  2.6km/h 13mph /  20.9km/h 70.4% 0.00in /  0mm 84 W/m2
08:24 60.4 °F /  15.8 °C 50.4 °F /  10.2 °C 30.10in /  1019.2hPa NNW 2.7mph /  4.3km/h 13mph /  20.9km/h 69.5% 0.00in /  0mm 90 W/m2
08:29 60.6 °F /  15.9 °C 49.5 °F /  9.7 °C 30.10in /  1019.2hPa NNW 3.2mph /  5.1km/h 13mph /  20.9km/h 66.9% 0.00in /  0mm 88 W/m2
08:34 60.7 °F /  15.9 °C 48.7 °F /  9.3 °C 30.10in /  1019.2hPa North 1.9mph /  3.1km/h 13mph /  20.9km/h 64.6% 0.00in /  0mm 84 W/m2
08:39 60.8 °F /  16 °C 49.2 °F /  9.6 °C 30.10in /  1019.2hPa NW 5mph /  8km/h 14mph /  22.5km/h 65.4% 0.00in /  0mm 113 W/m2
08:44 60.9 °F /  16.1 °C 49.1 °F /  9.5 °C 30.10in /  1019.2hPa WNW 3.6mph /  5.8km/h 17mph /  27.4km/h 65.1% 0.00in /  0mm 98 W/m2
08:49 60.9 °F /  16.1 °C 49.1 °F /  9.5 °C 30.10in /  1019.2hPa NW 2.7mph /  4.3km/h 17mph /  27.4km/h 65% 0.00in /  0mm 422 W/m2
08:54 61.1 °F /  16.2 °C 49.2 °F /  9.6 °C 30.10in /  1019.2hPa NW 2.6mph /  4.2km/h 17mph /  27.4km/h 64.7% 0.00in /  0mm 443 W/m2
08:59 61.5 °F /  16.4 °C 49.6 °F /  9.8 °C 30.10in /  1019.2hPa NW 1.3mph /  2.1km/h 17mph /  27.4km/h 64.8% 0.00in /  0mm 461 W/m2
09:04 62.3 °F /  16.8 °C 50.4 °F /  10.2 °C 30.10in /  1019.2hPa NNW 2.5mph /  4km/h 17mph /  27.4km/h 65% 0.00in /  0mm 473 W/m2
09:09 63.1 °F /  17.3 °C 50.9 °F /  10.5 °C 30.11in /  1019.5hPa WNW 1.5mph /  2.4km/h 12mph /  19.3km/h 64.3% 0.00in /  0mm 489 W/m2
09:14 64 °F /  17.8 °C 51.7 °F /  10.9 °C 30.11in /  1019.5hPa North 0.7mph /  1.1km/h 12mph /  19.3km/h 64.3% 0.00in /  0mm 503 W/m2
09:19 64.7 °F /  18.2 °C 51.6 °F /  10.9 °C 30.11in /  1019.5hPa NW 1.9mph /  3.1km/h 12mph /  19.3km/h 62.3% 0.00in /  0mm 522 W/m2
09:24 65.3 °F /  18.5 °C 51.8 °F /  11 °C 30.11in /  1019.5hPa NW 1.7mph /  2.7km/h 12mph /  19.3km/h 61.5% 0.00in /  0mm 538 W/m2
09:29 65.7 °F /  18.7 °C 51.2 °F /  10.7 °C 30.11in /  1019.5hPa NNW 2.3mph /  3.7km/h 12mph /  19.3km/h 59.5% 0.00in /  0mm 545 W/m2
09:34 65.8 °F /  18.8 °C 51 °F /  10.6 °C 30.11in /  1019.5hPa NE 1.3mph /  2.1km/h 12mph /  19.3km/h 58.7% 0.00in /  0mm 559 W/m2
09:39 65.8 °F /  18.8 °C 50.8 °F /  10.4 °C 30.11in /  1019.5hPa NE 0.9mph /  1.4km/h 6mph /  9.7km/h 58.3% 0.00in /  0mm 573 W/m2
09:44 66 °F /  18.9 °C 51.4 °F /  10.8 °C 30.11in /  1019.5hPa NW 0.6mph /  1km/h 6mph /  9.7km/h 59.1% 0.00in /  0mm 589 W/m2
09:49 66.5 °F /  19.2 °C 51.5 °F /  10.8 °C 30.11in /  1019.5hPa NE 1.8mph /  2.9km/h 6mph /  9.7km/h 58.6% 0.00in /  0mm 601 W/m2
09:54 66.6 °F /  19.2 °C 51.6 °F /  10.9 °C 30.11in /  1019.5hPa East 0.3mph /  0.5km/h 6mph /  9.7km/h 58.5% 0.00in /  0mm 617 W/m2
09:59 66.8 °F /  19.3 °C 51.5 °F /  10.8 °C 30.11in /  1019.5hPa ENE 0.4mph /  0.6km/h 6mph /  9.7km/h 58% 0.00in /  0mm 629 W/m2
10:04 67.3 °F /  19.6 °C 52.5 °F /  11.4 °C 30.11in /  1019.5hPa NW 0.3mph /  0.5km/h 6mph /  9.7km/h 59.1% 0.00in /  0mm 643 W/m2
10:09 67.9 °F /  19.9 °C 51.8 °F /  11 °C 30.11in /  1019.5hPa NNE 1.2mph /  1.9km/h 5mph /  8km/h 56.2% 0.00in /  0mm 656 W/m2
10:14 68.2 °F /  20.1 °C 51 °F /  10.6 °C 30.11in /  1019.5hPa ENE 1.5mph /  2.4km/h 11mph /  17.7km/h 54.1% 0.00in /  0mm 663 W/m2
10:19 68.1 °F /  20.1 °C 52 °F /  11.1 °C 30.11in /  1019.5hPa ENE 0.8mph /  1.3km/h 11mph /  17.7km/h 56.4% 0.00in /  0mm 675 W/m2
10:24 68.2 °F /  20.1 °C 51.1 °F /  10.6 °C 30.11in /  1019.5hPa NE 1.7mph /  2.7km/h 11mph /  17.7km/h 54.3% 0.00in /  0mm 686 W/m2
10:29 68.5 °F /  20.3 °C 51.9 °F /  11.1 °C 30.11in /  1019.5hPa North 0.8mph /  1.3km/h 11mph /  17.7km/h 55.4% 0.00in /  0mm 694 W/m2
10:34 69 °F /  20.6 °C 51.8 °F /  11 °C 30.11in /  1019.5hPa NNW 0.3mph /  0.5km/h 11mph /  17.7km/h 54.1% 0.00in /  0mm 708 W/m2
10:39 69.5 °F /  20.8 °C 51.5 °F /  10.8 °C 30.11in /  1019.5hPa ENE 1.1mph /  1.8km/h 7mph /  11.3km/h 52.9% 0.00in /  0mm 714 W/m2
10:44 69.3 °F /  20.7 °C 50.9 °F /  10.5 °C 30.11in /  1019.5hPa North 2.7mph /  4.3km/h 7mph /  11.3km/h 51.9% 0.00in /  0mm 724 W/m2
10:49 69.3 °F /  20.7 °C 51.5 °F /  10.8 °C 30.11in /  1019.5hPa NNE 0.8mph /  1.3km/h 7mph /  11.3km/h 53.1% 0.00in /  0mm 733 W/m2
10:54 69.6 °F /  20.9 °C 52.2 °F /  11.2 °C 30.11in /  1019.5hPa North 0.9mph /  1.4km/h 7mph /  11.3km/h 53.9% 0.00in /  0mm 738 W/m2
10:59 69.9 °F /  21.1 °C 51.4 °F /  10.8 °C 30.11in /  1019.5hPa NNW 1.4mph /  2.3km/h 10mph /  16.1km/h 51.8% 0.00in /  0mm 751 W/m2
11:04 69.8 °F /  21 °C 50.6 °F /  10.3 °C 30.11in /  1019.5hPa NW 0.1mph /  0.2km/h 10mph /  16.1km/h 50.4% 0.00in /  0mm 759 W/m2
11:09 69.9 °F /  21.1 °C 51.2 °F /  10.7 °C 30.11in /  1019.5hPa NW 0.8mph /  1.3km/h 4mph /  6.4km/h 51.4% 0.00in /  0mm 766 W/m2
11:14 70.3 °F /  21.3 °C 50.8 °F /  10.4 °C 30.11in /  1019.5hPa NNW 0.7mph /  1.1km/h 11mph /  17.7km/h 50.1% 0.00in /  0mm 780 W/m2
11:19 70.3 °F /  21.3 °C 50.1 °F /  10.1 °C 30.11in /  1019.5hPa NNW 1.7mph /  2.7km/h 11mph /  17.7km/h 48.7% 0.00in /  0mm 789 W/m2
11:24 70.4 °F /  21.3 °C 49.2 °F /  9.6 °C 30.11in /  1019.5hPa NNW 1.8mph /  2.9km/h 11mph /  17.7km/h 46.9% 0.00in /  0mm 793 W/m2
11:29 70.6 °F /  21.4 °C 49.1 °F /  9.5 °C 30.11in /  1019.5hPa NW 3.1mph /  5km/h 12mph /  19.3km/h 46.5% 0.00in /  0mm 800 W/m2
11:34 70.6 °F /  21.4 °C 48.5 °F /  9.2 °C 30.10in /  1019.2hPa NNW 1.7mph /  2.7km/h 12mph /  19.3km/h 45.5% 0.00in /  0mm 800 W/m2
11:39 70.5 °F /  21.4 °C 49.1 °F /  9.5 °C 30.10in /  1019.2hPa NNW 2.1mph /  3.4km/h 10mph /  16.1km/h 46.6% 0.00in /  0mm 253 W/m2
11:44 70.4 °F /  21.3 °C 49.2 °F /  9.6 °C 30.10in /  1019.2hPa West 1.4mph /  2.3km/h 10mph /  16.1km/h 46.9% 0.00in /  0mm 239 W/m2
11:49 70.2 °F /  21.2 °C 48.2 °F /  9 °C 30.10in /  1019.2hPa WNW 1.9mph /  3.1km/h 10mph /  16.1km/h 45.5% 0.00in /  0mm 83 W/m2
11:54 70 °F /  21.1 °C 48.9 °F /  9.4 °C 30.10in /  1019.2hPa NNW 0.9mph /  1.4km/h 10mph /  16.1km/h 47.1% 0.00in /  0mm 79 W/m2
11:59 70 °F /  21.1 °C 49.4 °F /  9.7 °C 30.10in /  1019.2hPa NNW 1.5mph /  2.4km/h 10mph /  16.1km/h 48% 0.00in /  0mm 74 W/m2
12:09 69.4 °F /  20.8 °C 47.5 °F /  8.6 °C 30.10in /  1019.2hPa North 1mph /  1.6km/h 6mph /  9.7km/h 45.7% 0.00in /  0mm 76 W/m2
12:14 69.1 °F /  20.6 °C 47.9 °F /  8.8 °C 30.10in /  1019.2hPa NW 2.3mph /  3.7km/h 12mph /  19.3km/h 46.8% 0.00in /  0mm 127 W/m2
12:19 68.9 °F /  20.5 °C 47.6 °F /  8.7 °C 30.10in /  1019.2hPa NNW 1.5mph /  2.4km/h 12mph /  19.3km/h 46.6% 0.00in /  0mm 127 W/m2
12:24 68.8 °F /  20.4 °C 47.9 °F /  8.8 °C 30.10in /  1019.2hPa NW 1mph /  1.6km/h 12mph /  19.3km/h 47.2% 0.00in /  0mm 137 W/m2
12:29 68.8 °F /  20.4 °C 47.5 °F /  8.6 °C 30.10in /  1019.2hPa North 1.9mph /  3.1km/h 12mph /  19.3km/h 46.6% 0.00in /  0mm 120 W/m2
12:34 68.8 °F /  20.4 °C 48.4 °F /  9.1 °C 30.10in /  1019.2hPa WNW 1.7mph /  2.7km/h 12mph /  19.3km/h 48.1% 0.00in /  0mm 188 W/m2
12:39 69 °F /  20.6 °C 48.8 °F /  9.3 °C 30.09in /  1018.8hPa West 1.9mph /  3.1km/h 7mph /  11.3km/h 48.5% 0.00in /  0mm 188 W/m2
12:44 69.2 °F /  20.7 °C 48.3 °F /  9.1 °C 30.09in /  1018.8hPa West 3.9mph /  6.3km/h 10mph /  16.1km/h 47.3% 0.00in /  0mm 65 W/m2
12:49 69.2 °F /  20.7 °C 48.6 °F /  9.2 °C 30.09in /  1018.8hPa West 2.3mph /  3.7km/h 10mph /  16.1km/h 47.9% 0.00in /  0mm 63 W/m2
12:54 69.3 °F /  20.7 °C 48.9 °F /  9.4 °C 30.09in /  1018.8hPa WNW 3.2mph /  5.1km/h 11mph /  17.7km/h 48.3% 0.00in /  0mm 163 W/m2
12:59 69.4 °F /  20.8 °C 48.3 °F /  9.1 °C 30.09in /  1018.8hPa WNW 1.9mph /  3.1km/h 11mph /  17.7km/h 47% 0.00in /  0mm 512 W/m2
13:04 69.5 °F /  20.8 °C 47.7 °F /  8.7 °C 30.09in /  1018.8hPa NE 1mph /  1.6km/h 11mph /  17.7km/h 45.8% 0.00in /  0mm 512 W/m2
13:09 69.5 °F /  20.8 °C 48.8 °F /  9.3 °C 30.09in /  1018.8hPa NNW 1.4mph /  2.3km/h 8mph /  12.9km/h 47.7% 0.00in /  0mm 86 W/m2
13:14 69.7 °F /  20.9 °C 48.3 °F /  9.1 °C 30.09in /  1018.8hPa WNW 1.5mph /  2.4km/h 8mph /  12.9km/h 46.5% 0.00in /  0mm 62 W/m2
13:19 69.6 °F /  20.9 °C 46.7 °F /  8.2 °C 30.09in /  1018.8hPa NNW 3.3mph /  5.3km/h 12mph /  19.3km/h 43.8% 0.00in /  0mm 67 W/m2
13:24 69.5 °F /  20.8 °C 47.6 °F /  8.7 °C 30.09in /  1018.8hPa NNW 1.3mph /  2.1km/h 12mph /  19.3km/h 45.5% 0.00in /  0mm 58 W/m2
13:29 69.5 °F /  20.8 °C 47.9 °F /  8.8 °C 30.09in /  1018.8hPa WNW 1.8mph /  2.9km/h 12mph /  19.3km/h 46.1% 0.00in /  0mm 74 W/m2
13:34 69.7 °F /  20.9 °C 47.5 °F /  8.6 °C 30.09in /  1018.8hPa WNW 4.3mph /  6.9km/h 12mph /  19.3km/h 45.2% 0.00in /  0mm 69 W/m2
13:39 69.8 °F /  21 °C 48.2 °F /  9 °C 30.09in /  1018.8hPa NW 1.6mph /  2.6km/h 11mph /  17.7km/h 46.1% 0.00in /  0mm 76 W/m2
13:44 70 °F /  21.1 °C 48.4 °F /  9.1 °C 30.09in /  1018.8hPa West 4.2mph /  6.8km/h 11mph /  17.7km/h 46.2% 0.00in /  0mm 58 W/m2
13:49 70.1 °F /  21.2 °C 47.5 °F /  8.6 °C 30.09in /  1018.8hPa WNW 3.7mph /  6km/h 13mph /  20.9km/h 44.5% 0.00in /  0mm 53 W/m2
13:54 70 °F /  21.1 °C 47.9 °F /  8.8 °C 30.09in /  1018.8hPa NW 3.7mph /  6km/h 13mph /  20.9km/h 45.3% 0.00in /  0mm 53 W/m2
13:59 70 °F /  21.1 °C 47.7 °F /  8.7 °C 30.09in /  1018.8hPa North 1.9mph /  3.1km/h 13mph /  20.9km/h 44.9% 0.00in /  0mm 83 W/m2
14:04 69.9 °F /  21.1 °C 46.9 °F /  8.3 °C 30.09in /  1018.8hPa NW 2.6mph /  4.2km/h 13mph /  20.9km/h 43.8% 0.00in /  0mm 83 W/m2
14:09 69.9 °F /  21.1 °C 47.5 °F /  8.6 °C 30.09in /  1018.8hPa WNW 2.2mph /  3.5km/h 10mph /  16.1km/h 44.9% 0.00in /  0mm 58 W/m2
14:14 70 °F /  21.1 °C 47.9 °F /  8.8 °C 30.09in /  1018.8hPa West 2.1mph /  3.4km/h 10mph /  16.1km/h 45.3% 0.00in /  0mm 83 W/m2
14:19 70.2 °F /  21.2 °C 48.7 °F /  9.3 °C 30.09in /  1018.8hPa WNW 2mph /  3.2km/h 10mph /  16.1km/h 46.4% 0.00in /  0mm 225 W/m2
14:24 70.4 °F /  21.3 °C 48.2 °F /  9 °C 30.08in /  1018.5hPa NW 2.6mph /  4.2km/h 10mph /  16.1km/h 45.2% 0.00in /  0mm 782 W/m2
14:29 70.6 °F /  21.4 °C 47.7 °F /  8.7 °C 30.08in /  1018.5hPa NNW 1.8mph /  2.9km/h 10mph /  16.1km/h 44.1% 0.00in /  0mm 782 W/m2
14:34 70.6 °F /  21.4 °C 47.5 °F /  8.6 °C 30.08in /  1018.5hPa WNW 4.2mph /  6.8km/h 14mph /  22.5km/h 43.7% 0.00in /  0mm 178 W/m2
14:39 70.6 °F /  21.4 °C 47.9 °F /  8.8 °C 30.08in /  1018.5hPa West 1.8mph /  2.9km/h 14mph /  22.5km/h 44.4% 0.00in /  0mm 139 W/m2
14:44 70.6 °F /  21.4 °C 47.8 °F /  8.8 °C 30.08in /  1018.5hPa West 4.2mph /  6.8km/h 15mph /  24.1km/h 44.2% 0.00in /  0mm 744 W/m2
14:49 70.7 °F /  21.5 °C 47.9 °F /  8.8 °C 30.08in /  1018.5hPa WNW 4.4mph /  7.1km/h 15mph /  24.1km/h 44.4% 0.00in /  0mm 712 W/m2
14:54 70.6 °F /  21.4 °C 48.1 °F /  8.9 °C 30.08in /  1018.5hPa WNW 3.9mph /  6.3km/h 15mph /  24.1km/h 44.8% 0.00in /  0mm 193 W/m2
14:59 70.6 °F /  21.4 °C 48.3 °F /  9.1 °C 30.08in /  1018.5hPa NW 2.4mph /  3.9km/h 15mph /  24.1km/h 45% 0.00in /  0mm 719 W/m2
15:04 70.7 °F /  21.5 °C 48 °F /  8.9 °C 30.08in /  1018.5hPa WNW 1.7mph /  2.7km/h 15mph /  24.1km/h 44.4% 0.00in /  0mm 543 W/m2
15:09 70.8 °F /  21.6 °C 48.3 °F /  9.1 °C 30.08in /  1018.5hPa WNW 2.7mph /  4.3km/h 12mph /  19.3km/h 44.9% 0.00in /  0mm 489 W/m2
15:14 70.7 °F /  21.5 °C 46.7 °F /  8.2 °C 30.08in /  1018.5hPa NW 5.4mph /  8.7km/h 12mph /  19.3km/h 42.3% 0.00in /  0mm 682 W/m2
15:19 70.8 °F /  21.6 °C 47.4 °F /  8.6 °C 30.08in /  1018.5hPa NW 3.7mph /  6km/h 12mph /  19.3km/h 43.3% 0.00in /  0mm 679 W/m2
15:24 71.1 °F /  21.7 °C 48.5 °F /  9.2 °C 30.08in /  1018.5hPa NW 2.4mph /  3.9km/h 12mph /  19.3km/h 44.7% 0.00in /  0mm 666 W/m2
15:28 71.3 °F /  21.8 °C 48.8 °F /  9.3 °C 30.07in /  1018.2hPa NW 2.7mph /  4.3km/h 13mph /  20.9km/h 45% 0.00in /  0mm 657 W/m2
15:34 71.6 °F /  22 °C 48.6 °F /  9.2 °C 30.07in /  1018.2hPa West 3mph /  4.8km/h 13mph /  20.9km/h 44.2% 0.00in /  0mm 645 W/m2
15:39 71.8 °F /  22.1 °C 47.3 °F /  8.5 °C 30.07in /  1018.2hPa WNW 4.6mph /  7.4km/h 13mph /  20.9km/h 41.7% 0.00in /  0mm 633 W/m2
15:44 71.8 °F /  22.1 °C 46.9 °F /  8.3 °C 30.07in /  1018.2hPa NW 3mph /  4.8km/h 13mph /  20.9km/h 41% 0.00in /  0mm 619 W/m2
15:49 71.6 °F /  22 °C 46.8 °F /  8.2 °C 30.07in /  1018.2hPa NW 2.1mph /  3.4km/h 13mph /  20.9km/h 41.1% 0.00in /  0mm 606 W/m2
15:54 71.5 °F /  21.9 °C 48.6 °F /  9.2 °C 30.07in /  1018.2hPa WNW 0.9mph /  1.4km/h 13mph /  20.9km/h 44.2% 0.00in /  0mm 589 W/m2
15:58 71.5 °F /  21.9 °C 48.5 °F /  9.2 °C 30.07in /  1018.2hPa West 1.3mph /  2.1km/h 13mph /  20.9km/h 44.1% 0.00in /  0mm 49 W/m2
16:00 71.4 °F /  21.9 °C 49 °F /  9.4 °C 30.06in /  1017.8hPa Calm   13mph /  20.9km/h 45% 0.00in /  0mm 47 W/m2
16:09 71.1 °F /  21.7 °C 49 °F /  9.4 °C 30.07in /  1018.2hPa WNW 3.4mph /  5.5km/h 10mph /  16.1km/h 45.5% 0.00in /  0mm 46 W/m2
16:14 70.9 °F /  21.6 °C 48.6 °F /  9.2 °C 30.06in /  1017.8hPa West 3.4mph /  5.5km/h 15mph /  24.1km/h 45.1% 0.00in /  0mm 46 W/m2
16:19 70.7 °F /  21.5 °C 49.1 °F /  9.5 °C 30.06in /  1017.8hPa WNW 1.5mph /  2.4km/h 15mph /  24.1km/h 46.3% 0.00in /  0mm 44 W/m2
16:24 70.6 °F /  21.4 °C 49.4 °F /  9.7 °C 30.06in /  1017.8hPa WNW 2.3mph /  3.7km/h 15mph /  24.1km/h 47.1% 0.00in /  0mm 42 W/m2
16:29 70.5 °F /  21.4 °C 50 °F /  10 °C 30.06in /  1017.8hPa WNW 2.1mph /  3.4km/h 15mph /  24.1km/h 48.3% 0.00in /  0mm 42 W/m2
16:34 70.5 °F /  21.4 °C 50 °F /  10 °C 30.06in /  1017.8hPa West 4.4mph /  7.1km/h 15mph /  24.1km/h 48.2% 0.00in /  0mm 42 W/m2
16:39 70.4 °F /  21.3 °C 49.6 °F /  9.8 °C 30.07in /  1018.2hPa WNW 1.9mph /  3.1km/h 13mph /  20.9km/h 47.7% 0.00in /  0mm 40 W/m2
16:44 70.3 °F /  21.3 °C 49.8 °F /  9.9 °C 30.07in /  1018.2hPa WNW 1.2mph /  1.9km/h 13mph /  20.9km/h 48.3% 0.00in /  0mm 40 W/m2
16:49 70.3 °F /  21.3 °C 50.2 °F /  10.1 °C 30.07in /  1018.2hPa WNW 2.5mph /  4km/h 13mph /  20.9km/h 49% 0.00in /  0mm 39 W/m2
16:54 70.2 °F /  21.2 °C 49.7 °F /  9.8 °C 30.07in /  1018.2hPa West 3.4mph /  5.5km/h 13mph /  20.9km/h 48.2% 0.00in /  0mm 39 W/m2
16:59 70.1 °F /  21.2 °C 49.6 °F /  9.8 °C 30.07in /  1018.2hPa WNW 5.1mph /  8.2km/h 13mph /  20.9km/h 48.2% 0.00in /  0mm 37 W/m2
17:04 69.9 °F /  21.1 °C 49.2 °F /  9.6 °C 30.07in /  1018.2hPa WNW 3.3mph /  5.3km/h 13mph /  20.9km/h 47.8% 0.00in /  0mm 37 W/m2
17:09 69.7 °F /  20.9 °C 49.2 °F /  9.6 °C 30.07in /  1018.2hPa WNW 2.4mph /  3.9km/h 13mph /  20.9km/h 48.1% 0.00in /  0mm 35 W/m2
17:14 69.6 °F /  20.9 °C 49.3 °F /  9.6 °C 30.08in /  1018.5hPa WNW 4mph /  6.4km/h 13mph /  20.9km/h 48.4% 0.00in /  0mm 35 W/m2
17:19 69.4 °F /  20.8 °C 49 °F /  9.4 °C 30.08in /  1018.5hPa WNW 1.4mph /  2.3km/h 13mph /  20.9km/h 48.2% 0.00in /  0mm 33 W/m2
17:24 69.3 °F /  20.7 °C 49.5 °F /  9.7 °C 30.08in /  1018.5hPa WNW 3.4mph /  5.5km/h 14mph /  22.5km/h 49.2% 0.00in /  0mm 33 W/m2
17:29 69.1 °F /  20.6 °C 48.6 °F /  9.2 °C 30.08in /  1018.5hPa WNW 4.9mph /  7.9km/h 14mph /  22.5km/h 48% 0.00in /  0mm 32 W/m2
17:34 68.9 °F /  20.5 °C 48.6 °F /  9.2 °C 30.08in /  1018.5hPa WNW 3mph /  4.8km/h 14mph /  22.5km/h 48.4% 0.00in /  0mm 32 W/m2
17:39 68.7 °F /  20.4 °C 49 °F /  9.4 °C 30.08in /  1018.5hPa NW 2.9mph /  4.7km/h 11mph /  17.7km/h 49.5% 0.00in /  0mm 30 W/m2
17:44 68.6 °F /  20.3 °C 49 °F /  9.4 °C 30.08in /  1018.5hPa WNW 1.1mph /  1.8km/h 11mph /  17.7km/h 49.6% 0.00in /  0mm 28 W/m2
17:49 68.5 °F /  20.3 °C 49.2 °F /  9.6 °C 30.08in /  1018.5hPa WNW 1.8mph /  2.9km/h 11mph /  17.7km/h 50.2% 0.00in /  0mm 28 W/m2
17:54 68.3 °F /  20.2 °C 49.2 °F /  9.6 °C 30.08in /  1018.5hPa NNW 1.1mph /  1.8km/h 11mph /  17.7km/h 50.3% 0.00in /  0mm 26 W/m2
17:59 68.1 °F /  20.1 °C 49.1 °F /  9.5 °C 30.09in /  1018.8hPa WNW 1.1mph /  1.8km/h 11mph /  17.7km/h 50.4% 0.00in /  0mm 26 W/m2
18:04 68 °F /  20 °C 49 °F /  9.4 °C 30.09in /  1018.8hPa West 1.9mph /  3.1km/h 11mph /  17.7km/h 50.5% 0.00in /  0mm 25 W/m2
18:09 67.9 °F /  19.9 °C 49 °F /  9.4 °C 30.10in /  1019.2hPa West 0.4mph /  0.6km/h 11mph /  17.7km/h 50.8% 0.00in /  0mm 23 W/m2
18:14 67.7 °F /  19.8 °C 49 °F /  9.4 °C 30.09in /  1018.8hPa West 0.5mph /  0.8km/h 11mph /  17.7km/h 51% 0.00in /  0mm 21 W/m2
18:19 67.6 °F /  19.8 °C 49.1 °F /  9.5 °C 30.09in /  1018.8hPa West 0.3mph /  0.5km/h 11mph /  17.7km/h 51.4% 0.00in /  0mm 19 W/m2
18:24 67.5 °F /  19.7 °C 49.2 °F /  9.6 °C 30.09in /  1018.8hPa Calm   11mph /  17.7km/h 51.8% 0.00in /  0mm 18 W/m2
18:29 67.4 °F /  19.7 °C 49.2 °F /  9.6 °C 30.09in /  1018.8hPa West 0.5mph /  0.8km/h 11mph /  17.7km/h 52% 0.00in /  0mm 16 W/m2
18:34 67.2 °F /  19.6 °C 49 °F /  9.4 °C 30.09in /  1018.8hPa West 0.7mph /  1.1km/h 11mph /  17.7km/h 52.1% 0.00in /  0mm 14 W/m2
18:39 67 °F /  19.4 °C 49.5 °F /  9.7 °C 30.09in /  1018.8hPa Calm   4mph /  6.4km/h 53.4% 0.00in /  0mm 12 W/m2
18:44 66.8 °F /  19.3 °C 49.8 °F /  9.9 °C 30.09in /  1018.8hPa Calm   4mph /  6.4km/h 54.4% 0.00in /  0mm 11 W/m2
18:49 66.6 °F /  19.2 °C 50.1 °F /  10.1 °C 30.10in /  1019.2hPa West 0.2mph /  0.3km/h 4mph /  6.4km/h 55.4% 0.00in /  0mm 7 W/m2
18:54 66.3 °F /  19.1 °C 50.1 °F /  10.1 °C 30.11in /  1019.5hPa West 0.1mph /  0.2km/h 4mph /  6.4km/h 55.8% 0.00in /  0mm 5 W/m2
18:59 66.1 °F /  18.9 °C 50.1 °F /  10.1 °C 30.11in /  1019.5hPa West 0.4mph /  0.6km/h 4mph /  6.4km/h 56.2% 0.00in /  0mm 0 W/m2
19:04 65.8 °F /  18.8 °C 49.9 °F /  9.9 °C 30.11in /  1019.5hPa West 0.5mph /  0.8km/h 4mph /  6.4km/h 56.3% 0.00in /  0mm 0 W/m2
19:09 65.5 °F /  18.6 °C 49.9 °F /  9.9 °C 30.11in /  1019.5hPa West 0.2mph /  0.3km/h 3mph /  4.8km/h 57% 0.00in /  0mm 0 W/m2
19:14 65.2 °F /  18.4 °C 49.5 °F /  9.7 °C 30.11in /  1019.5hPa West 0.1mph /  0.2km/h 3mph /  4.8km/h 56.8% 0.00in /  0mm 0 W/m2
19:19 64.9 °F /  18.3 °C 49.6 °F /  9.8 °C 30.11in /  1019.5hPa West 0.2mph /  0.3km/h 3mph /  4.8km/h 57.6% 0.00in /  0mm 0 W/m2
19:24 64.5 °F /  18.1 °C 49.6 °F /  9.8 °C 30.11in /  1019.5hPa West 0.1mph /  0.2km/h 3mph /  4.8km/h 58.4% 0.00in /  0mm 0 W/m2
19:29 64.2 °F /  17.9 °C 49.1 °F /  9.5 °C 30.11in /  1019.5hPa Calm   3mph /  4.8km/h 58% 0.00in /  0mm 0 W/m2
19:34 63.9 °F /  17.7 °C 49.2 °F /  9.6 °C 30.11in /  1019.5hPa Calm   3mph /  4.8km/h 58.7% 0.00in /  0mm 0 W/m2
19:39 63.6 °F /  17.6 °C 48.8 °F /  9.3 °C 30.11in /  1019.5hPa West 0.1mph /  0.2km/h 3mph /  4.8km/h 58.5% 0.00in /  0mm 0 W/m2
19:44 63.3 °F /  17.4 °C 48.7 °F /  9.3 °C 30.11in /  1019.5hPa West 0.2mph /  0.3km/h 3mph /  4.8km/h 58.8% 0.00in /  0mm 0 W/m2
19:49 63.1 °F /  17.3 °C 49 °F /  9.4 °C 30.11in /  1019.5hPa Calm   3mph /  4.8km/h 59.9% 0.00in /  0mm 0 W/m2
19:54 62.8 °F /  17.1 °C 48.7 °F /  9.3 °C 30.11in /  1019.5hPa West 0.2mph /  0.3km/h 4mph /  6.4km/h 60% 0.00in /  0mm 0 W/m2
19:59 62.5 °F /  16.9 °C 48.7 °F /  9.3 °C 30.12in /  1019.9hPa Calm   4mph /  6.4km/h 60.6% 0.00in /  0mm 0 W/m2
20:00 62.4 °F /  16.9 °C 48.8 °F /  9.3 °C 30.11in /  1019.5hPa Calm   4mph /  6.4km/h 61% 0.00in /  0mm 0 W/m2
20:09 61.9 °F /  16.6 °C 49.2 °F /  9.6 °C 30.12in /  1019.9hPa Calm     63% 0.00in /  0mm 0 W/m2
20:14 61.8 °F /  16.6 °C 49 °F /  9.4 °C 30.12in /  1019.9hPa Calm     63% 0.00in /  0mm 0 W/m2
20:19 61.5 °F /  16.4 °C 48.8 °F /  9.3 °C 30.12in /  1019.9hPa Calm     63% 0.00in /  0mm 0 W/m2
20:23 61.3 °F /  16.3 °C 49 °F /  9.4 °C 30.12in /  1019.9hPa West 0.1mph /  0.2km/h 2mph /  3.2km/h 63.9% 0.00in /  0mm 0 W/m2
20:29 61.1 °F /  16.2 °C 48.8 °F /  9.3 °C 30.12in /  1019.9hPa West 0.2mph /  0.3km/h 3mph /  4.8km/h 64% 0.00in /  0mm 0 W/m2
20:34 60.9 °F /  16.1 °C 48.7 °F /  9.3 °C 30.12in /  1019.9hPa West 0.2mph /  0.3km/h 3mph /  4.8km/h 64% 0.00in /  0mm 0 W/m2
20:39 60.8 °F /  16 °C 48.6 °F /  9.2 °C 30.12in /  1019.9hPa Calm   2mph /  3.2km/h 64% 0.00in /  0mm 0 W/m2
20:44 60.8 °F /  16 °C 48.5 °F /  9.2 °C 30.13in /  1020.2hPa Calm   2mph /  3.2km/h 64% 0.00in /  0mm 0 W/m2
20:49 60.7 °F /  15.9 °C 48.8 °F /  9.3 °C 30.13in /  1020.2hPa Calm   2mph /  3.2km/h 65% 0.00in /  0mm 0 W/m2
20:54 60.5 °F /  15.8 °C 49.1 °F /  9.5 °C 30.13in /  1020.2hPa Calm   2mph /  3.2km/h 66% 0.00in /  0mm 0 W/m2
20:59 60.2 °F /  15.7 °C 48.7 °F /  9.3 °C 30.13in /  1020.2hPa West 0.1mph /  0.2km/h 2mph /  3.2km/h 65.7% 0.00in /  0mm 0 W/m2
21:04 60 °F /  15.6 °C 48.5 °F /  9.2 °C 30.13in /  1020.2hPa Calm   2mph /  3.2km/h 65.8% 0.00in /  0mm 0 W/m2
21:09 59.9 °F /  15.5 °C 48.9 °F /  9.4 °C 30.13in /  1020.2hPa Calm   1mph /  1.6km/h 66.9% 0.00in /  0mm 0 W/m2
21:14 59.8 °F /  15.4 °C 48.8 °F /  9.3 °C 30.13in /  1020.2hPa Calm   1mph /  1.6km/h 67% 0.00in /  0mm 0 W/m2
21:19 59.6 °F /  15.3 °C 48.7 °F /  9.3 °C 30.13in /  1020.2hPa Calm   1mph /  1.6km/h 67.2% 0.00in /  0mm 0 W/m2
21:24 59.4 °F /  15.2 °C 48.8 °F /  9.3 °C 30.14in /  1020.5hPa Calm   1mph /  1.6km/h 67.8% 0.00in /  0mm 0 W/m2
21:29 59.2 °F /  15.1 °C 48.6 °F /  9.2 °C 30.14in /  1020.5hPa West 0.1mph /  0.2km/h 1mph /  1.6km/h 68% 0.00in /  0mm 0 W/m2
21:34 58.9 °F /  14.9 °C 48.4 °F /  9.1 °C 30.14in /  1020.5hPa Calm   1mph /  1.6km/h 68% 0.00in /  0mm 0 W/m2
21:39 58.8 °F /  14.9 °C 48.2 °F /  9 °C 30.14in /  1020.5hPa Calm     68% 0.00in /  0mm 0 W/m2
21:43 58.6 °F /  14.8 °C 48.1 °F /  8.9 °C 30.14in /  1020.5hPa Calm     68% 0.00in /  0mm 0 W/m2
21:49 58.4 °F /  14.7 °C 48.3 °F /  9.1 °C 30.14in /  1020.5hPa Calm     69% 0.00in /  0mm 0 W/m2
21:54 58.2 °F /  14.6 °C 48.4 °F /  9.1 °C 30.14in /  1020.5hPa West 0.1mph /  0.2km/h 3mph /  4.8km/h 69.7% 0.00in /  0mm 0 W/m2
21:59 58.1 °F /  14.5 °C 48.6 °F /  9.2 °C 30.14in /  1020.5hPa West 0.5mph /  0.8km/h 3mph /  4.8km/h 70.6% 0.00in /  0mm 0 W/m2
22:04 57.9 °F /  14.4 °C 48.6 °F /  9.2 °C 30.14in /  1020.5hPa West 0.3mph /  0.5km/h 3mph /  4.8km/h 71% 0.00in /  0mm 0 W/m2
22:09 57.7 °F /  14.3 °C 48.1 °F /  8.9 °C 30.14in /  1020.5hPa West 0.2mph /  0.3km/h 2mph /  3.2km/h 70.1% 0.00in /  0mm 0 W/m2
22:13 57.7 °F /  14.3 °C 47.7 °F /  8.7 °C 30.14in /  1020.5hPa West 0.5mph /  0.8km/h 3mph /  4.8km/h 69.1% 0.00in /  0mm 0 W/m2
22:19 57.7 °F /  14.3 °C 47.7 °F /  8.7 °C 30.14in /  1020.5hPa West 0.6mph /  1km/h 4mph /  6.4km/h 69.3% 0.00in /  0mm 0 W/m2
22:24 57.7 °F /  14.3 °C 47.6 °F /  8.7 °C 30.14in /  1020.5hPa West 0.8mph /  1.3km/h 5mph /  8km/h 69% 0.00in /  0mm 0 W/m2
22:29 57.7 °F /  14.3 °C 47.5 °F /  8.6 °C 30.14in /  1020.5hPa WNW 2mph /  3.2km/h 5mph /  8km/h 68.7% 0.00in /  0mm 0 W/m2
22:34 57.9 °F /  14.4 °C 47.3 °F /  8.5 °C 30.14in /  1020.5hPa WNW 1.3mph /  2.1km/h 6mph /  9.7km/h 67.7% 0.00in /  0mm 0 W/m2
22:39 58.2 °F /  14.6 °C 47.1 °F /  8.4 °C 30.14in /  1020.5hPa NW 1.8mph /  2.9km/h 12mph /  19.3km/h 66.5% 0.00in /  0mm 0 W/m2
22:44 58.5 °F /  14.7 °C 47.2 °F /  8.4 °C 30.14in /  1020.5hPa NW 1.2mph /  1.9km/h 12mph /  19.3km/h 66% 0.00in /  0mm 0 W/m2
22:49 58.8 °F /  14.9 °C 47.1 °F /  8.4 °C 30.14in /  1020.5hPa NW 3.8mph /  6.1km/h 12mph /  19.3km/h 65.3% 0.00in /  0mm 0 W/m2
22:54 59 °F /  15 °C 47.1 °F /  8.4 °C 30.13in /  1020.2hPa WNW 3mph /  4.8km/h 12mph /  19.3km/h 64.6% 0.00in /  0mm 0 W/m2
22:59 59.3 °F /  15.2 °C 47.1 °F /  8.4 °C 30.13in /  1020.2hPa NW 1.3mph /  2.1km/h 12mph /  19.3km/h 64% 0.00in /  0mm 0 W/m2
23:04 59.4 °F /  15.2 °C 47.1 °F /  8.4 °C 30.14in /  1020.5hPa Calm   12mph /  19.3km/h 63.7% 0.00in /  0mm 0 W/m2
23:09 59.5 °F /  15.3 °C 46.9 °F /  8.3 °C 30.14in /  1020.5hPa NW 1mph /  1.6km/h 4mph /  6.4km/h 63.1% 0.00in /  0mm 0 W/m2
23:14 59.5 °F /  15.3 °C 47.3 °F /  8.5 °C 30.13in /  1020.2hPa NW 1.3mph /  2.1km/h 6mph /  9.7km/h 64% 0.00in /  0mm 0 W/m2
23:19 59.4 °F /  15.2 °C 47.3 °F /  8.5 °C 30.13in /  1020.2hPa NW 0.7mph /  1.1km/h 6mph /  9.7km/h 64% 0.00in /  0mm 0 W/m2
23:24 59.4 °F /  15.2 °C 47.2 °F /  8.4 °C 30.14in /  1020.5hPa Calm   6mph /  9.7km/h 64% 0.00in /  0mm 0 W/m2
23:29 59.3 °F /  15.2 °C 47.1 °F /  8.4 °C 30.14in /  1020.5hPa NW 0.1mph /  0.2km/h 6mph /  9.7km/h 64% 0.00in /  0mm 0 W/m2
23:34 59.2 °F /  15.1 °C 47 °F /  8.3 °C 30.14in /  1020.5hPa NW 0.1mph /  0.2km/h 6mph /  9.7km/h 64% 0.00in /  0mm 0 W/m2
23:39 59.1 °F /  15.1 °C 46.9 °F /  8.3 °C 30.14in /  1020.5hPa Calm   1mph /  1.6km/h 64% 0.00in /  0mm 0 W/m2
23:44 59 °F /  15 °C 47.1 °F /  8.4 °C 30.14in /  1020.5hPa Calm   1mph /  1.6km/h 64.7% 0.00in /  0mm 0 W/m2
23:49 58.8 °F /  14.9 °C 46.8 °F /  8.2 °C 30.14in /  1020.5hPa Calm   1mph /  1.6km/h 64.5% 0.00in /  0mm 0 W/m2
23:54 58.6 °F /  14.8 °C 47 °F /  8.3 °C 30.14in /  1020.5hPa NW 0.1mph /  0.2km/h 2mph /  3.2km/h 65.1% 0.00in /  0mm 0 W/m2
23:59 58.5 °F /  14.7 °C 47.2 °F /  8.4 °C 30.15in /  1020.9hPa Calm   2mph /  3.2km/h 66% 0.00in /  0mm 0 W/m2
Hartford County Weather
Compliments of Weather Underground - 2 mb